Aviation Digital Data Service (ADDS)

Output produced by METARs form (1000 UTC 26 February 2017)
found at http://www.aviationweather.gov/adds/metars/
 
KUNV 260955Z AUTO 27012G20KT 10SM -SN BKN034 OVC041 M03/M09 A2993 RMK AO2 T10271086
KUNV 260935Z AUTO 27009KT 10SM OVC041 M02/M10 A2992 RMK AO2 T10251101
KUNV 260915Z AUTO 29010G20KT 10SM OVC043 M02/M10 A2991 RMK AO2 T10251104
KUNV 260855Z AUTO 30013G24KT 280V340 10SM OVC043 M02/M11 A2991 RMK AO2 T10231107
KUNV 260835Z AUTO 28013G22KT 10SM M02/M09 A2991 RMK AO2 T10211088
KUNV 260815Z AUTO 28012KT 10SM M02/M08 A2991 RMK AO2 T10221081
KUNV 260755Z AUTO 27020G26KT 10SM M02/M08 A2991 RMK AO2 T10201082
KUNV 260735Z AUTO 28015G24KT 10SM SCT030 OVC036 M02/M07 A2990 RMK AO2 T10171072
KUNV 260715Z AUTO 28012G22KT 10SM -SN OVC032 M01/M07 A2989 RMK AO2 T10151067
KUNV 260655Z AUTO 27009G20KT 10SM OVC036 M01/M07 A2988 RMK AO2 T10131072
KUNV 260635Z AUTO 28013G19KT 10SM BKN035 OVC044 M01/M08 A2988 RMK AO2 T10121077
KUNV 260615Z AUTO 28012G21KT 10SM SCT033 OVC046 M01/M08 A2987 RMK AO2 T10101077
KUNV 260555Z AUTO 28014G19KT 10SM BKN035 OVC042 M01/M07 A2986 RMK AO2 T10071070 10049 21007
KUNV 260535Z AUTO 29014G22KT 10SM OVC035 M01/M07 A2985 RMK AO2 T10061070
KUNV 260515Z AUTO 28013G25KT 10SM OVC037 00/M08 A2985 RMK AO2 T10051078
KUNV 260455Z AUTO 30012G26KT 10SM OVC037 00/M07 A2984 RMK AO2 T10031073
KUNV 260435Z AUTO 30013G26KT 10SM OVC034 00/M06 A2983 RMK AO2 T10021065
KUNV 260415Z AUTO 28014G23KT 10SM OVC034 00/M06 A2982 RMK AO2 T00001061
KUNV 260355Z AUTO 26018G25KT 10SM OVC034 00/M06 A2981 RMK AO2 T00011058 401760001
KUNV 260335Z AUTO 29014G34KT 10SM BKN036 OVC045 00/M06 A2980 RMK AO2 T00031062
KUNV 260315Z AUTO 28020G34KT 10SM SCT035 OVC046 01/M06 A2979 RMK AO2 T00061061
KUNV 260153Z 29017G27KT 10SM SCT033 BKN042 OVC048 02/M03 A2975
KUNV 260053Z COR 28017G25KT 10SM BKN043 OVC050 03/M04 A2972
KUNV 252353Z 27020G30KT 10SM BKN048 OVC055 05/M02 A2967
KUNV 252253Z 27020G35KT 10SM SCT044 BKN050 OVC060 06/M01 A2963
KUNV 252153Z COR 26008KT 10SM SCT050 SCT075 OVC095 07/05 A2955
KUNV 252053Z 25006KT 10SM -DZ SCT031 BKN046 OVC070 07/05 A2956
KUNV 251953Z 29013G19KT 5SM RA SCT019 OVC027 07/05 A2955
KUNV 251853Z 25012KT 7SM -RA BKN023 BKN031 OVC040 08/05 A2955
KUNV 251753Z 29027G32KT 7SM -RA SCT015 SCT022 OVC032 09/07 A2952
KUNV 251653Z 20014KT 10SM -RA SCT044 BKN075 OVC080 13/11 A2950
KUNV 251553Z 21008G15KT 6SM RA SCT035 BKN041 OVC070 14/11 A2954
KUNV 251527Z 22014G18KT 5SM -RA SCT038 SCT060 OVC065 15/11 A2957
KUNV 251453Z COR 22008G15KT 10SM -RA SCT023 SCT031 OVC060 15/12 A2956
KUNV 251422Z 20010G16KT 10SM BKN035 OVC065 16/12 A2956
KUNV 251353Z 20009G17KT 10SM SCT022 16/12 A2956
KUNV 251310Z 21004KT 10SM BKN022 15/12 A2957
KUNV 251253Z 22005KT 10SM SCT026 BKN075 15/12 A2957
KUNV 251153Z 20006KT 10SM SKC 15/11 A2958
KUNV 251053Z 21006KT 10SM SKC 15/11 A2960
KUNV 251035Z AUTO 20005KT 10SM CLR 15/11 A2960 RMK AO2 T01460112
KUNV 251015Z AUTO 21007KT 10SM CLR 15/11 A2961 RMK AO2 T01490114
KUNV 250955Z AUTO 20005KT 10SM CLR 15/11 A2962 RMK AO2 T01500113
KUNV 250935Z AUTO 19005KT 10SM CLR 15/11 A2962 RMK AO2 T01520112
KUNV 250915Z AUTO 19007KT 10SM CLR 15/11 A2963 RMK AO2 T01530112
KUNV 250855Z AUTO 20006KT 10SM SCT080 15/11 A2964 RMK AO2 T01540111
KUNV 250835Z AUTO 19006KT 10SM BKN080 16/11 A2964 RMK AO2 LTG DSNT SW T01560111
KUNV 250815Z AUTO 19008KT 10SM BKN080 16/11 A2965 RMK AO2 T01580110
KUNV 250755Z AUTO 19007KT 10SM SCT080 16/11 A2966 RMK AO2 T01560109
KUNV 250735Z AUTO 19009G17KT 10SM CLR 16/11 A2967 RMK AO2 T01600108
KUNV 250715Z AUTO 18008G15KT 10SM CLR 16/11 A2967 RMK AO2 LTG DSNT SW T01610107
KUNV 250655Z AUTO 18010G15KT 10SM CLR 16/11 A2968 RMK AO2 T01620106
KUNV 250635Z AUTO 19008KT 10SM CLR 17/11 A2968 RMK AO2 T01650105
KUNV 250615Z AUTO 18008G18KT 10SM CLR 17/10 A2968 RMK AO2 LTG DSNT NW T01670104
KUNV 250555Z AUTO 18011G15KT 160V220 10SM CLR 17/10 A2969 RMK AO2 T01670101 10197 20166
KUNV 250535Z AUTO 19009G15KT 10SM CLR 17/10 A2969 RMK AO2 LTG DSNT SW T01700101
KUNV 250515Z AUTO 18007KT 10SM CLR 17/10 A2970 RMK AO2 T01700100
KUNV 250455Z AUTO 19009G15KT 10SM CLR 17/10 A2970 RMK AO2 T01720101
KUNV 250435Z AUTO 17013G16KT 10SM CLR 17/10 A2971 RMK AO2 T01740101
KUNV 250415Z AUTO 19011KT 10SM CLR 17/10 A2971 RMK AO2 T01720101
KUNV 250355Z AUTO 19010G16KT 10SM CLR 18/10 A2971 RMK AO2 LTG DSNT W T01760101 402410093
KUNV 250335Z AUTO 19010G18KT 10SM CLR 18/10 A2971 RMK AO2 LTG DSNT SW T01770101
KUNV 250315Z AUTO 18009KT 10SM CLR 18/10 A2971 RMK AO2 T01770100
KUNV 250153Z 18010G22KT 10SM SKC 18/10 A2973
KUNV 250053Z 18010G19KT 10SM SKC 19/10 A2973
KUNV 242353Z 18010KT 10SM SKC 20/09 A2973
KUNV 242253Z 20010G18KT 10SM SKC 21/09 A2972